createdAt,value
2024-05-09T00:02:23.040Z,18.83
2024-05-09T00:04:53.030Z,18.63
2024-05-09T00:07:23.226Z,17.05
2024-05-09T00:09:52.867Z,19.00
2024-05-09T00:12:22.627Z,16.90
2024-05-09T00:14:52.276Z,15.38
2024-05-09T00:17:24.658Z,24.67
2024-05-09T00:19:54.423Z,17.60
2024-05-09T00:22:24.051Z,17.67
2024-05-09T00:24:53.685Z,21.67
2024-05-09T00:27:23.367Z,17.35
2024-05-09T00:29:53.009Z,15.57
2024-05-09T00:32:25.431Z,18.23
2024-05-09T00:34:55.256Z,18.83
2024-05-09T00:37:24.938Z,15.75
2024-05-09T00:39:54.596Z,17.63
2024-05-09T00:42:24.209Z,17.88
2024-05-09T00:44:53.835Z,17.67
2024-05-09T00:47:26.687Z,19.55
2024-05-09T00:49:56.721Z,16.25
2024-05-09T00:52:26.868Z,17.77
2024-05-09T00:54:57.438Z,16.00
2024-05-09T00:57:28.345Z,15.55
2024-05-09T00:59:58.535Z,20.42
2024-05-09T01:02:32.547Z,20.58
2024-05-09T01:05:02.572Z,22.42
2024-05-09T01:07:32.241Z,19.52
2024-05-09T01:10:01.875Z,18.23
2024-05-09T01:12:31.579Z,19.65
2024-05-09T01:15:01.267Z,19.30
2024-05-09T01:17:33.712Z,17.55
2024-05-09T01:20:06.243Z,17.92
2024-05-09T01:22:39.419Z,21.90
2024-05-09T01:25:11.914Z,20.85
2024-05-09T01:27:41.585Z,22.00
2024-05-09T01:30:17.273Z,20.25
2024-05-09T01:32:50.987Z,26.88
2024-05-09T01:35:23.795Z,22.80
2024-05-09T01:37:53.940Z,23.17
2024-05-09T01:40:36.178Z,23.58
2024-05-09T01:43:10.124Z,24.17
2024-05-09T01:45:41.457Z,26.13
2024-05-09T01:48:12.115Z,23.67
2024-05-09T01:50:43.206Z,22.52
2024-05-09T01:53:15.274Z,23.75
2024-05-09T01:55:47.759Z,23.95
2024-05-09T01:58:17.414Z,24.85
2024-05-09T02:00:47.293Z,25.00
2024-05-09T02:03:17.986Z,23.67
2024-05-09T02:05:50.046Z,25.00
2024-05-09T02:08:22.056Z,24.50
2024-05-09T02:10:54.597Z,22.35
2024-05-09T02:13:24.314Z,24.42
2024-05-09T02:15:53.931Z,26.42
2024-05-09T02:18:23.824Z,27.88
2024-05-09T02:20:53.673Z,27.10
2024-05-09T02:23:23.333Z,28.38
2024-05-09T02:25:55.641Z,28.50
2024-05-09T02:28:25.288Z,29.30
2024-05-09T02:30:54.903Z,30.15
2024-05-09T02:33:24.776Z,28.08
2024-05-09T02:35:54.502Z,29.40
2024-05-09T02:38:21.566Z,31.55
2024-05-09T02:40:48.642Z,27.67
2024-05-09T02:43:20.882Z,29.38
2024-05-09T02:45:47.933Z,30.50
2024-05-09T02:48:17.712Z,28.95
2024-05-09T02:50:45.120Z,28.80
2024-05-09T02:53:15.514Z,31.42
2024-05-09T02:55:43.247Z,29.33
2024-05-09T02:58:13.311Z,32.60
2024-05-09T03:00:43.287Z,29.27
2024-05-09T03:03:15.323Z,27.35
2024-05-09T03:05:43.781Z,28.92
2024-05-09T03:08:13.910Z,31.08
2024-05-09T03:10:41.332Z,31.63
2024-05-09T03:13:11.906Z,30.15
2024-05-09T03:15:42.846Z,32.67
2024-05-09T03:18:13.547Z,33.17
2024-05-09T03:20:41.106Z,31.88
2024-05-09T03:23:11.060Z,28.83
2024-05-09T03:25:38.362Z,33.45
2024-05-09T03:28:08.969Z,28.48
2024-05-09T03:30:41.289Z,32.03
2024-05-09T03:33:19.147Z,31.23
2024-05-09T03:35:47.904Z,29.98
2024-05-09T03:38:18.017Z,31.13
2024-05-09T03:40:49.407Z,32.30
2024-05-09T03:43:20.608Z,31.13
2024-05-09T03:45:48.867Z,29.38
2024-05-09T03:48:21.345Z,32.15
2024-05-09T03:50:48.997Z,32.17
2024-05-09T03:53:18.724Z,32.85
2024-05-09T03:55:45.892Z,31.70
2024-05-09T03:58:15.664Z,33.00
2024-05-09T04:00:42.812Z,35.17
2024-05-09T04:03:13.483Z,31.33
2024-05-09T04:05:44.581Z,34.17
2024-05-09T04:08:14.709Z,31.08
2024-05-09T04:10:42.068Z,35.25
2024-05-09T04:13:12.649Z,31.05
2024-05-09T04:15:39.805Z,28.95
2024-05-09T04:18:09.655Z,45.58
2024-05-09T04:20:39.748Z,37.88
2024-05-09T04:23:14.854Z,35.40
2024-05-09T04:25:43.543Z,37.13
2024-05-09T04:28:13.419Z,33.88
2024-05-09T04:30:41.693Z,34.10
2024-05-09T04:33:13.943Z,32.55
2024-05-09T04:35:42.732Z,34.35
2024-05-09T04:38:16.098Z,33.17
2024-05-09T04:40:43.618Z,36.17
2024-05-09T04:43:18.975Z,37.05
2024-05-09T04:45:46.355Z,34.60
2024-05-09T04:48:16.663Z,35.78
2024-05-09T04:50:44.175Z,38.92
2024-05-09T04:53:18.791Z,35.47
2024-05-09T04:55:45.989Z,35.92
2024-05-09T04:58:15.644Z,36.75
2024-05-09T05:00:42.822Z,35.53
2024-05-09T05:03:15.869Z,32.80
2024-05-09T05:05:45.239Z,35.00
2024-05-09T05:08:19.528Z,37.35
2024-05-09T05:10:48.530Z,34.80
2024-05-09T05:13:20.803Z,34.92
2024-05-09T05:15:50.050Z,33.97
2024-05-09T05:18:20.348Z,32.28
2024-05-09T05:20:48.171Z,31.85
2024-05-09T05:23:22.208Z,34.05
2024-05-09T05:25:51.068Z,32.83
2024-05-09T05:28:21.652Z,31.67
2024-05-09T05:30:48.767Z,30.17
2024-05-09T05:33:19.524Z,28.13
2024-05-09T05:35:47.020Z,25.23
2024-05-09T05:38:16.829Z,25.95
2024-05-09T05:40:46.566Z,24.02
2024-05-09T05:43:20.518Z,24.15
2024-05-09T05:45:47.595Z,21.45
2024-05-09T05:48:18.752Z,20.83
2024-05-09T05:50:46.222Z,22.30
2024-05-09T05:53:16.087Z,22.67
2024-05-09T05:55:43.296Z,21.52
2024-05-09T05:58:15.923Z,23.92
2024-05-09T06:00:43.318Z,21.30
2024-05-09T06:03:14.802Z,22.95
2024-05-09T06:05:43.998Z,22.23
2024-05-09T06:08:14.175Z,22.35
2024-05-09T06:10:42.193Z,21.63
2024-05-09T06:13:15.757Z,23.60
2024-05-09T06:15:43.651Z,22.92
2024-05-09T06:18:13.863Z,22.95
2024-05-09T06:20:43.032Z,23.20
2024-05-09T06:23:13.803Z,23.92
2024-05-09T06:25:42.055Z,24.42
2024-05-09T06:28:12.036Z,24.20
2024-05-09T06:30:43.040Z,21.85
2024-05-09T06:33:15.881Z,24.80
2024-05-09T06:35:44.048Z,25.85
2024-05-09T06:38:13.986Z,23.80
2024-05-09T06:40:43.660Z,28.23
2024-05-09T06:43:16.171Z,25.85
2024-05-09T06:45:48.602Z,26.05
2024-05-09T06:48:21.625Z,27.77
2024-05-09T06:50:49.981Z,31.05
2024-05-09T06:53:22.864Z,29.75
2024-05-09T06:55:50.309Z,32.22
2024-05-09T06:58:20.040Z,28.23
2024-05-09T07:00:49.724Z,24.88
2024-05-09T07:03:19.857Z,25.83
2024-05-09T07:05:48.636Z,24.00
2024-05-09T07:08:19.583Z,24.25
2024-05-09T07:10:46.962Z,23.92
2024-05-09T07:13:17.897Z,22.48
2024-05-09T07:15:45.093Z,26.38
2024-05-09T07:18:20.095Z,21.33
2024-05-09T07:20:49.311Z,23.63
2024-05-09T07:23:19.876Z,19.85
2024-05-09T07:25:47.194Z,22.48
2024-05-09T07:28:18.095Z,20.42
2024-05-09T07:30:45.469Z,20.30
2024-05-09T07:33:23.107Z,23.73
2024-05-09T07:35:51.593Z,22.52
2024-05-09T07:38:21.510Z,20.10
2024-05-09T07:40:48.942Z,19.45
2024-05-09T07:43:18.696Z,19.45
2024-05-09T07:45:52.391Z,19.23
2024-05-09T07:50:00.255Z,17.70
2024-05-09T07:53:51.336Z,18.25
2024-05-09T07:56:22.902Z,16.25
2024-05-09T07:58:54.606Z,15.55
2024-05-09T08:01:22.345Z,17.05
2024-05-09T08:03:55.292Z,16.52
2024-05-09T08:06:23.594Z,14.75
2024-05-09T08:08:53.219Z,16.55
2024-05-09T08:11:20.578Z,13.68
2024-05-09T08:13:50.201Z,15.27
2024-05-09T08:16:17.299Z,14.20
2024-05-09T08:18:47.064Z,14.90
2024-05-09T08:21:16.745Z,16.30
2024-05-09T08:23:46.339Z,15.63
2024-05-09T08:26:13.355Z,17.30
2024-05-09T08:28:42.962Z,16.77
2024-05-09T08:31:11.667Z,18.33
2024-05-09T08:33:47.016Z,15.88
2024-05-09T08:36:16.908Z,15.38
2024-05-09T08:38:46.510Z,16.52
2024-05-09T08:41:14.660Z,16.13
2024-05-09T08:43:44.374Z,18.38
2024-05-09T08:46:13.125Z,15.05
2024-05-09T08:48:44.787Z,14.15
2024-05-09T08:51:12.091Z,13.77
2024-05-09T08:53:44.384Z,16.20
2024-05-09T08:56:12.540Z,17.30
2024-05-09T08:58:43.218Z,14.13
2024-05-09T09:01:12.210Z,18.30
2024-05-09T09:03:42.989Z,14.65
2024-05-09T09:06:12.688Z,14.73
2024-05-09T09:08:45.080Z,14.10
2024-05-09T09:11:12.116Z,15.48
2024-05-09T09:13:41.835Z,14.43
2024-05-09T09:16:09.080Z,16.48
2024-05-09T09:18:39.042Z,14.30
2024-05-09T09:21:10.521Z,13.75
2024-05-09T09:23:44.216Z,12.45
2024-05-09T09:26:16.498Z,15.20
2024-05-09T09:28:46.340Z,11.65
2024-05-09T09:31:17.793Z,14.50
2024-05-09T09:33:47.817Z,14.40
2024-05-09T09:36:15.090Z,14.18
2024-05-09T09:38:50.926Z,15.32
2024-05-09T09:41:19.899Z,12.88
2024-05-09T09:43:50.452Z,10.80
2024-05-09T09:46:19.440Z,11.85
2024-05-09T09:48:50.588Z,13.82
2024-05-09T09:51:18.353Z,11.32
2024-05-09T09:53:53.133Z,14.52
2024-05-09T09:56:21.291Z,12.48
2024-05-09T09:58:51.514Z,10.20
2024-05-09T10:01:18.703Z,10.48
2024-05-09T10:03:48.639Z,9.25
2024-05-09T10:06:16.214Z,10.80
2024-05-09T10:08:47.777Z,11.35
2024-05-09T10:11:20.107Z,12.38
2024-05-09T10:13:49.814Z,11.98
2024-05-09T10:16:21.251Z,10.32
2024-05-09T10:18:51.277Z,10.35
2024-05-09T10:21:18.877Z,9.02
2024-05-09T10:23:59.895Z,11.10
2024-05-09T10:26:34.002Z,10.73
2024-05-09T10:29:04.691Z,8.25
2024-05-09T10:31:32.316Z,9.35
2024-05-09T10:34:03.582Z,13.30
2024-05-09T10:36:30.960Z,10.05
2024-05-09T10:39:02.156Z,9.07
2024-05-09T10:41:29.293Z,8.55
2024-05-09T10:44:01.519Z,7.57
2024-05-09T10:46:28.625Z,6.95
2024-05-09T10:49:04.215Z,8.77
2024-05-09T10:51:33.392Z,8.27
2024-05-09T10:54:03.367Z,9.43
2024-05-09T10:56:30.436Z,8.10
2024-05-09T10:59:02.638Z,9.38
2024-05-09T11:01:29.778Z,8.23
2024-05-09T11:03:59.710Z,10.13
2024-05-09T11:06:26.997Z,13.18
2024-05-09T11:08:57.181Z,8.98
2024-05-09T11:11:25.230Z,9.30
2024-05-09T11:13:54.897Z,10.40
2024-05-09T11:16:24.711Z,10.90
2024-05-09T11:18:58.931Z,7.80
2024-05-09T11:21:26.843Z,8.32
2024-05-09T11:23:56.615Z,9.32
2024-05-09T11:26:25.275Z,7.55
2024-05-09T11:28:55.070Z,8.85
2024-05-09T11:31:25.039Z,8.38
2024-05-09T11:33:57.087Z,8.27
2024-05-09T11:36:24.305Z,8.60
2024-05-09T11:38:54.154Z,9.25
2024-05-09T11:41:21.212Z,17.17
2024-05-09T11:43:50.830Z,8.18
2024-05-09T11:46:18.063Z,7.22
2024-05-09T11:48:50.585Z,6.57
2024-05-09T11:51:17.793Z,6.97
2024-05-09T11:53:47.442Z,7.10
2024-05-09T11:56:15.568Z,6.30
2024-05-09T11:58:45.258Z,6.95
2024-05-09T12:01:12.423Z,6.35
2024-05-09T12:03:42.374Z,9.43
2024-05-09T12:06:12.311Z,7.10
2024-05-09T12:08:42.045Z,7.07
2024-05-09T12:11:09.448Z,6.63
2024-05-09T12:13:39.145Z,7.90
2024-05-09T12:16:06.685Z,6.70
2024-05-09T12:18:36.457Z,6.45
2024-05-09T12:21:03.766Z,6.68
2024-05-09T12:23:35.975Z,6.20
2024-05-09T12:26:03.162Z,7.78
2024-05-09T12:28:32.907Z,7.63
2024-05-09T12:31:00.101Z,6.40
2024-05-09T12:33:29.858Z,6.63
2024-05-09T12:35:57.046Z,6.38
2024-05-09T12:38:26.650Z,6.53
2024-05-09T12:40:56.486Z,9.07
2024-05-09T12:43:26.576Z,6.35
2024-05-09T12:45:53.892Z,6.43
2024-05-09T12:48:23.685Z,6.88
2024-05-09T12:50:51.694Z,6.50
2024-05-09T12:53:21.428Z,5.95
2024-05-09T12:55:56.254Z,7.00
2024-05-09T12:58:31.969Z,6.00
2024-05-09T13:00:59.059Z,5.28
2024-05-09T13:03:28.927Z,7.07
2024-05-09T13:05:56.042Z,6.68
2024-05-09T13:08:25.797Z,6.25
2024-05-09T13:10:52.998Z,6.38
2024-05-09T13:13:22.795Z,6.15
2024-05-09T13:15:52.491Z,8.55
2024-05-09T13:18:22.221Z,7.35
2024-05-09T13:20:49.281Z,5.32
2024-05-09T13:23:18.932Z,5.38
2024-05-09T13:25:46.162Z,7.53
2024-05-09T13:28:16.118Z,6.88
2024-05-09T13:30:43.437Z,5.55
2024-05-09T13:33:16.068Z,6.00
2024-05-09T13:35:47.402Z,5.35
2024-05-09T13:38:21.760Z,6.32
2024-05-09T13:40:49.840Z,5.65
2024-05-09T13:43:22.095Z,5.25
2024-05-09T13:45:49.582Z,7.80
2024-05-09T13:48:21.960Z,6.25
2024-05-09T13:50:49.131Z,5.68
2024-05-09T13:53:18.826Z,7.15
2024-05-09T13:55:45.925Z,7.32
2024-05-09T13:58:15.769Z,5.50
2024-05-09T14:00:47.885Z,8.45
2024-05-09T14:03:21.618Z,8.05
2024-05-09T14:05:50.769Z,6.90
2024-05-09T14:08:22.462Z,6.18
2024-05-09T14:10:50.667Z,7.80
2024-05-09T14:13:20.629Z,6.95
2024-05-09T14:15:47.847Z,5.30
2024-05-09T14:18:17.662Z,7.82
2024-05-09T14:20:47.396Z,8.63
2024-05-09T14:23:17.212Z,6.82
2024-05-09T14:25:46.008Z,6.25
2024-05-09T14:28:16.978Z,5.75
2024-05-09T14:30:44.111Z,6.10
2024-05-09T14:33:16.344Z,6.63
2024-05-09T14:35:43.429Z,10.27
2024-05-09T14:38:15.716Z,5.85
2024-05-09T14:40:44.095Z,6.85
2024-05-09T14:43:15.162Z,8.38
2024-05-09T14:45:43.717Z,7.20
2024-05-09T14:48:14.806Z,6.65
2024-05-09T14:50:42.416Z,6.65
2024-05-09T14:53:15.594Z,5.47
2024-05-09T14:55:43.717Z,7.78
2024-05-09T14:58:14.540Z,5.82
2024-05-09T15:00:46.639Z,5.07
2024-05-09T15:03:20.607Z,6.43
2024-05-09T15:05:49.080Z,7.47
2024-05-09T15:08:22.396Z,5.65
2024-05-09T15:13:20.819Z,7.78
2024-05-09T15:15:48.324Z,6.32
2024-05-09T15:18:18.504Z,5.60
2024-05-09T15:20:46.122Z,7.40
2024-05-09T15:23:15.968Z,5.63
2024-05-09T15:25:45.724Z,5.43
2024-05-09T15:28:15.589Z,5.32
2024-05-09T15:30:46.186Z,5.47
2024-05-09T15:33:16.797Z,4.90
2024-05-09T15:35:46.269Z,5.07
2024-05-09T15:38:18.242Z,6.38
2024-05-09T15:40:48.477Z,7.60
2024-05-09T15:43:18.254Z,5.97
2024-05-09T15:45:45.618Z,5.28
2024-05-09T15:48:15.515Z,6.82
2024-05-09T15:50:43.236Z,5.40
2024-05-09T15:53:14.153Z,7.40
2024-05-09T15:55:41.833Z,5.97
2024-05-09T15:58:14.417Z,5.82
2024-05-09T16:00:44.754Z,7.13
2024-05-09T16:03:16.136Z,6.65
2024-05-09T16:05:44.591Z,6.03
2024-05-09T16:08:15.173Z,9.98
2024-05-09T16:10:44.652Z,8.75
2024-05-09T16:13:19.741Z,6.40
2024-05-09T16:15:47.240Z,5.30
2024-05-09T16:18:17.230Z,4.88
2024-05-09T16:20:46.344Z,6.47
2024-05-09T16:23:17.961Z,5.80
2024-05-09T16:25:46.046Z,6.10
2024-05-09T16:28:19.152Z,5.82
2024-05-09T16:33:19.445Z,5.30
2024-05-09T16:35:46.876Z,5.25
2024-05-09T16:38:16.585Z,5.38
2024-05-09T16:40:43.841Z,5.47
2024-05-09T16:43:14.761Z,6.60
2024-05-09T16:45:44.837Z,5.90
2024-05-09T16:48:15.019Z,5.35
2024-05-09T16:50:42.391Z,4.88
2024-05-09T16:53:13.634Z,5.70
2024-05-09T16:55:40.669Z,6.15
2024-05-09T16:58:12.484Z,7.68
2024-05-09T17:00:42.800Z,6.78
2024-05-09T17:03:17.017Z,7.20
2024-05-09T17:08:18.692Z,8.90
2024-05-09T17:10:46.441Z,6.28
2024-05-09T17:13:16.591Z,5.47
2024-05-09T17:15:46.385Z,5.93
2024-05-09T17:18:19.133Z,5.95
2024-05-09T17:20:46.302Z,5.97
2024-05-09T17:23:15.954Z,9.15
2024-05-09T17:25:43.210Z,7.13
2024-05-09T17:28:13.556Z,5.70
2024-05-09T17:30:42.288Z,5.20
2024-05-09T17:33:13.687Z,5.55
2024-05-09T17:35:45.885Z,7.50
2024-05-09T17:38:15.846Z,6.60
2024-05-09T17:40:43.075Z,6.13
2024-05-09T17:43:12.916Z,6.53
2024-05-09T17:45:41.269Z,5.30
2024-05-09T17:48:12.515Z,4.65
2024-05-09T17:50:40.215Z,5.45
2024-05-09T17:53:13.384Z,4.35
2024-05-09T17:55:40.832Z,5.78
2024-05-09T17:58:11.032Z,6.55
2024-05-09T18:00:41.153Z,5.45
2024-05-09T18:03:14.012Z,7.60
2024-05-09T18:05:42.961Z,6.00
2024-05-09T18:08:16.567Z,5.85
2024-05-09T18:10:44.367Z,5.65
2024-05-09T18:13:15.814Z,8.77
2024-05-09T18:15:43.554Z,6.10
2024-05-09T18:18:14.520Z,8.10
2024-05-09T18:20:45.254Z,10.05
2024-05-09T18:23:19.799Z,7.13
2024-05-09T18:25:47.436Z,8.52
2024-05-09T18:28:18.402Z,6.88
2024-05-09T18:30:45.823Z,8.15
2024-05-09T18:33:16.335Z,8.30
2024-05-09T18:35:44.060Z,7.32
2024-05-09T18:38:13.814Z,9.18
2024-05-09T18:40:46.093Z,8.10
2024-05-09T18:43:19.022Z,7.00
2024-05-09T18:45:49.100Z,8.32
2024-05-09T18:48:18.843Z,6.85
2024-05-09T18:50:46.056Z,7.60
2024-05-09T18:53:17.007Z,10.40
2024-05-09T18:55:46.669Z,15.10
2024-05-09T18:58:17.179Z,13.00
2024-05-09T19:00:46.694Z,10.23
2024-05-09T19:03:19.081Z,11.40
2024-05-09T19:05:46.710Z,10.63
2024-05-09T19:08:17.142Z,8.95
2024-05-09T19:10:46.919Z,8.55
2024-05-09T19:13:16.897Z,7.88
2024-05-09T19:15:44.575Z,7.68
2024-05-09T19:18:15.637Z,8.10
2024-05-09T19:20:43.188Z,9.65
2024-05-09T19:23:13.396Z,10.48
2024-05-09T19:25:40.646Z,11.95
2024-05-09T19:28:13.001Z,15.50
2024-05-09T19:30:42.285Z,12.85
2024-05-09T19:33:14.016Z,10.27
2024-05-09T19:35:41.821Z,8.65
2024-05-09T19:38:11.823Z,9.80
2024-05-09T19:40:39.054Z,10.55
2024-05-09T19:43:08.992Z,11.88
2024-05-09T19:45:38.996Z,11.65
2024-05-09T19:48:09.612Z,8.48
2024-05-09T19:50:42.292Z,9.32
2024-05-09T19:53:14.432Z,8.68
2024-05-09T19:55:41.990Z,8.75
2024-05-09T19:58:12.946Z,8.80
2024-05-09T20:00:44.278Z,9.77
2024-05-09T20:03:16.185Z,11.82
2024-05-09T20:05:45.910Z,9.30
2024-05-09T20:08:16.226Z,10.88
2024-05-09T20:10:43.682Z,12.45
2024-05-09T20:13:13.535Z,8.63
2024-05-09T20:15:43.351Z,7.57
2024-05-09T20:18:13.304Z,7.43
2024-05-09T20:20:42.991Z,7.05
2024-05-09T20:23:15.016Z,8.57
2024-05-09T20:25:42.508Z,8.60
2024-05-09T20:28:12.382Z,9.27
2024-05-09T20:30:42.247Z,7.93
2024-05-09T20:33:12.570Z,7.60
2024-05-09T20:35:40.055Z,7.78
2024-05-09T20:38:09.688Z,8.32
2024-05-09T20:40:38.982Z,8.98
2024-05-09T20:43:11.023Z,8.88
2024-05-09T20:45:38.892Z,24.60
2024-05-09T20:48:12.247Z,14.27
2024-05-09T20:50:41.906Z,22.50
2024-05-09T20:53:14.613Z,18.00
2024-05-09T20:55:42.835Z,11.82
2024-05-09T20:58:13.216Z,9.38
2024-05-09T21:00:43.955Z,8.02
2024-05-09T21:03:18.341Z,9.18
2024-05-09T21:05:46.365Z,9.57
2024-05-09T21:08:16.610Z,10.18
2024-05-09T21:10:43.794Z,11.30
2024-05-09T21:13:13.927Z,8.05
2024-05-09T21:15:41.161Z,10.32
2024-05-09T21:18:10.884Z,8.88
2024-05-09T21:20:40.593Z,6.20
2024-05-09T21:23:10.326Z,8.20
2024-05-09T21:25:37.399Z,6.80
2024-05-09T21:28:07.412Z,8.32
2024-05-09T21:30:41.355Z,6.32
2024-05-09T21:33:14.680Z,8.77
2024-05-09T21:35:47.796Z,9.02
2024-05-09T21:38:15.324Z,9.73
2024-05-09T21:40:45.730Z,19.08
2024-05-09T21:43:12.947Z,15.95
2024-05-09T21:45:42.786Z,11.80
2024-05-09T21:48:12.508Z,11.77
2024-05-09T21:50:42.693Z,10.52
2024-05-09T21:53:13.441Z,8.55
2024-05-09T21:55:43.888Z,10.88
2024-05-09T21:58:11.982Z,7.43
2024-05-09T22:00:42.960Z,10.55
2024-05-09T22:03:11.200Z,8.10
2024-05-09T22:05:43.509Z,12.27
2024-05-09T22:08:13.490Z,10.40
2024-05-09T22:10:43.209Z,13.45
2024-05-09T22:13:10.704Z,11.88
2024-05-09T22:15:41.474Z,9.75
2024-05-09T22:18:10.147Z,11.10
2024-05-09T22:20:45.118Z,10.38
2024-05-09T22:23:15.988Z,11.68
2024-05-09T22:25:45.716Z,13.23
2024-05-09T22:28:14.858Z,11.60
2024-05-09T22:30:47.022Z,11.65
2024-05-09T22:33:15.277Z,10.02
2024-05-09T22:35:45.421Z,10.15
2024-05-09T22:38:15.151Z,10.02
2024-05-09T22:40:48.454Z,10.85
2024-05-09T22:43:18.840Z,13.07
2024-05-09T22:45:50.137Z,10.10
2024-05-09T22:48:17.590Z,8.88
2024-05-09T22:50:47.607Z,10.80
2024-05-09T22:53:18.168Z,11.48
2024-05-09T22:55:47.801Z,10.00
2024-05-09T22:58:14.892Z,11.50
2024-05-09T23:00:44.749Z,11.93
2024-05-09T23:03:11.912Z,11.93
2024-05-09T23:05:41.518Z,13.05
2024-05-09T23:08:09.014Z,12.27
2024-05-09T23:10:41.276Z,10.15
2024-05-09T23:13:08.782Z,12.48
2024-05-09T23:15:39.492Z,13.80
2024-05-09T23:18:08.482Z,16.25
2024-05-09T23:20:39.966Z,12.45
2024-05-09T23:23:08.352Z,13.10
2024-05-09T23:25:40.939Z,13.30
2024-05-09T23:28:10.873Z,12.05
2024-05-09T23:30:41.809Z,12.10
2024-05-09T23:33:10.629Z,10.48
2024-05-09T23:35:40.594Z,11.60
2024-05-09T23:38:07.625Z,10.45
2024-05-09T23:43:12.223Z,9.88
2024-05-09T23:45:42.864Z,10.70
2024-05-09T23:48:10.313Z,10.70
2024-05-09T23:50:40.935Z,11.25
2024-05-09T23:53:09.663Z,12.30
2024-05-09T23:55:40.079Z,12.73
2024-05-09T23:58:07.530Z,13.60
